Accueil
METAR-TAF:

METAR-TAF

Aéroports :

Payson, Arizona, États-Unis

latitude: 34-15-25N, longitude: 111-20-21W, altitude: 1572 m

Observation

Le bulletin a été fait il y a 14 minutes, à 09:35 UTC
Vent calme
Température 22°C
Humidité 31%
Pression 1021 hPa
Visibilité: 16.1 km
Ciel clair

METAR: KPAN 300935Z AUTO 00000KT 10SM CLR 22/04 A3016 RMK AO2

Heure: 02:49 (09:49 UTC)


TAF: absent

Observations et prévisions météorologiques de plus de 4000 aéroports (messages METAR et TAF).

Les stations disponibles sont représentées par des disques jaunes et rouges sur la carte.

Passer la souris dessus pour voir le nom de la station.

Cliquer dessus pour voir les observations et prévisions météorologiques.

Pour changer de carte: cliquez sur les boutons verts avec une croix noire pour zoomer, sur le bouton vert avec un tiret pour effectuer un zoom arrière, ou sur les flèches vertes pour les cartes adjacentes.


METAR-TAF: